createdAt,value
2019-05-23T00:02:16.438Z,91.20
2019-05-23T00:05:04.138Z,90.92
2019-05-23T00:07:39.049Z,90.75
2019-05-23T00:10:20.675Z,90.60
2019-05-23T00:13:04.515Z,90.17
2019-05-23T00:15:42.859Z,91.02
2019-05-23T00:18:21.085Z,90.77
2019-05-23T00:20:53.642Z,92.17
2019-05-23T00:23:28.442Z,93.26
2019-05-23T00:26:03.094Z,92.85
2019-05-23T00:28:39.218Z,92.68
2019-05-23T00:31:24.696Z,92.28
2019-05-23T00:34:00.671Z,91.68
2019-05-23T00:36:36.917Z,92.10
2019-05-23T00:39:12.001Z,92.12
2019-05-23T00:41:49.156Z,91.85
2019-05-23T00:44:24.735Z,92.18
2019-05-23T00:47:00.358Z,91.19
2019-05-23T00:49:36.346Z,91.51
2019-05-23T00:52:11.871Z,91.00
2019-05-23T00:54:47.577Z,91.13
2019-05-23T00:57:21.848Z,90.98
2019-05-23T00:59:56.226Z,90.92
2019-05-23T01:02:32.153Z,91.38
2019-05-23T01:05:07.316Z,90.94
2019-05-23T01:07:43.498Z,91.02
2019-05-23T01:10:18.427Z,90.63
2019-05-23T01:12:53.290Z,92.29
2019-05-23T01:15:27.345Z,91.74
2019-05-23T01:18:01.248Z,91.55
2019-05-23T01:20:55.033Z,91.99
2019-05-23T01:23:31.808Z,92.22
2019-05-23T01:26:08.690Z,92.60
2019-05-23T01:28:43.085Z,92.95
2019-05-23T01:31:23.592Z,93.22
2019-05-23T01:33:58.824Z,92.84
2019-05-23T01:36:34.046Z,93.26
2019-05-23T01:39:12.307Z,92.50
2019-05-23T01:41:46.993Z,91.99
2019-05-23T01:44:21.611Z,91.89
2019-05-23T01:46:57.938Z,91.81
2019-05-23T01:49:34.350Z,92.29
2019-05-23T01:52:11.825Z,92.58
2019-05-23T01:54:45.994Z,93.01
2019-05-23T01:57:22.991Z,92.64
2019-05-23T02:00:08.796Z,93.19
2019-05-23T02:02:34.676Z,92.94
2019-05-23T02:05:10.608Z,92.66
2019-05-23T02:07:44.858Z,93.01
2019-05-23T02:10:19.838Z,92.66
2019-05-23T02:12:54.062Z,92.75
2019-05-23T02:15:28.917Z,93.51
2019-05-23T02:18:06.725Z,93.05
2019-05-23T02:20:42.615Z,93.72
2019-05-23T02:23:18.341Z,93.68
2019-05-23T02:25:52.142Z,94.10
2019-05-23T02:28:25.827Z,93.20
2019-05-23T02:31:02.388Z,93.31
2019-05-23T02:33:37.719Z,93.37
2019-05-23T02:36:15.029Z,93.79
2019-05-23T02:39:08.810Z,93.49
2019-05-23T02:42:04.061Z,93.00
2019-05-23T02:44:41.175Z,93.22
2019-05-23T02:47:26.691Z,93.58
2019-05-23T02:50:01.929Z,94.08
2019-05-23T02:52:46.865Z,94.09
2019-05-23T02:55:30.799Z,94.20
2019-05-23T02:58:43.570Z,94.19
2019-05-23T03:02:08.763Z,93.61
2019-05-23T03:04:45.211Z,93.46
2019-05-23T03:07:23.943Z,93.32
2019-05-23T03:09:59.264Z,93.15
2019-05-23T03:12:34.551Z,93.25
2019-05-23T03:15:12.295Z,93.37
2019-05-23T03:17:53.281Z,93.76
2019-05-23T03:20:29.706Z,93.62
2019-05-23T03:23:13.435Z,93.93
2019-05-23T03:26:45.678Z,94.16
2019-05-23T03:29:20.419Z,93.78
2019-05-23T03:32:38.156Z,92.93
2019-05-23T03:35:23.794Z,92.27
2019-05-23T03:37:57.947Z,91.99
2019-05-23T03:40:33.339Z,91.51
2019-05-23T03:43:09.819Z,91.90
2019-05-23T03:45:53.948Z,91.96
2019-05-23T03:48:29.900Z,91.82
2019-05-23T03:51:05.262Z,90.80
2019-05-23T03:53:39.891Z,90.39
2019-05-23T03:56:13.886Z,90.46
2019-05-23T03:58:48.406Z,89.77
2019-05-23T04:01:24.546Z,89.28
2019-05-23T04:04:00.874Z,87.58
2019-05-23T04:06:35.729Z,86.67
2019-05-23T04:09:11.700Z,86.97
2019-05-23T04:11:45.933Z,87.65
2019-05-23T04:14:20.255Z,86.91
2019-05-23T04:16:55.331Z,87.29
2019-05-23T04:19:30.216Z,86.06
2019-05-23T04:22:04.028Z,81.16
2019-05-23T04:24:38.129Z,77.78
2019-05-23T04:27:12.287Z,79.01
2019-05-23T04:29:46.001Z,80.68
2019-05-23T04:32:20.020Z,80.34
2019-05-23T04:34:55.843Z,78.36
2019-05-23T04:37:31.555Z,76.68
2019-05-23T04:40:06.468Z,71.79
2019-05-23T04:42:40.374Z,69.42
2019-05-23T04:45:15.893Z,67.27
2019-05-23T04:47:51.262Z,67.10
2019-05-23T04:50:25.965Z,67.48
2019-05-23T04:53:03.144Z,66.14
2019-05-23T04:55:38.256Z,64.40
2019-05-23T04:58:13.027Z,62.75
2019-05-23T05:00:48.596Z,62.29
2019-05-23T05:03:25.253Z,60.33
2019-05-23T05:06:01.133Z,60.11
2019-05-23T05:08:35.344Z,59.17
2019-05-23T05:11:09.455Z,57.65
2019-05-23T05:13:44.388Z,59.49
2019-05-23T05:16:18.576Z,61.39
2019-05-23T05:18:56.254Z,61.12
2019-05-23T05:21:34.157Z,62.00
2019-05-23T05:24:08.387Z,61.21
2019-05-23T05:26:42.089Z,62.01
2019-05-23T05:29:16.007Z,61.15
2019-05-23T05:31:49.921Z,61.10
2019-05-23T05:34:25.229Z,61.08
2019-05-23T05:36:59.284Z,56.38
2019-05-23T05:39:37.374Z,56.03
2019-05-23T05:42:13.952Z,54.11
2019-05-23T05:44:47.974Z,52.02
2019-05-23T05:47:23.036Z,51.09
2019-05-23T05:49:59.008Z,47.62
2019-05-23T05:52:33.813Z,46.29
2019-05-23T05:55:09.454Z,44.22
2019-05-23T05:57:44.847Z,44.43
2019-05-23T06:01:06.186Z,43.75
2019-05-23T06:03:42.879Z,45.35
2019-05-23T06:06:30.475Z,47.42
2019-05-23T06:09:33.646Z,45.64
2019-05-23T06:12:08.483Z,46.87
2019-05-23T06:14:46.426Z,48.53
2019-05-23T06:17:19.721Z,47.51
2019-05-23T06:19:54.817Z,43.76
2019-05-23T06:22:30.876Z,41.79
2019-05-23T06:25:07.305Z,42.65
2019-05-23T06:27:44.224Z,40.86
2019-05-23T06:30:21.915Z,41.17
2019-05-23T06:32:55.923Z,41.36
2019-05-23T06:35:31.880Z,43.61
2019-05-23T06:38:05.706Z,42.83
2019-05-23T06:40:41.061Z,42.94
2019-05-23T06:43:15.378Z,42.39
2019-05-23T06:45:50.296Z,41.98
2019-05-23T06:48:25.531Z,39.52
2019-05-23T06:51:02.297Z,36.67
2019-05-23T06:53:36.015Z,37.00
2019-05-23T06:56:12.399Z,36.72
2019-05-23T06:58:47.354Z,37.61
2019-05-23T07:01:21.484Z,35.01
2019-05-23T07:03:56.638Z,36.18
2019-05-23T07:06:32.232Z,36.04
2019-05-23T07:09:13.189Z,33.74
2019-05-23T07:11:48.886Z,35.61
2019-05-23T07:14:22.701Z,34.26
2019-05-23T07:16:57.657Z,35.55
2019-05-23T07:19:35.336Z,34.50
2019-05-23T07:22:10.751Z,33.41
2019-05-23T07:24:57.393Z,34.50
2019-05-23T07:27:24.188Z,33.57
2019-05-23T07:30:00.589Z,32.82
2019-05-23T07:32:35.584Z,33.10
2019-05-23T07:35:12.146Z,32.40
2019-05-23T07:37:46.471Z,31.58
2019-05-23T07:40:20.476Z,30.68
2019-05-23T07:42:56.334Z,32.55
2019-05-23T07:45:40.387Z,30.09
2019-05-23T07:48:14.517Z,30.37
2019-05-23T07:50:51.614Z,29.54
2019-05-23T07:53:45.446Z,28.47
2019-05-23T07:56:20.483Z,29.43
2019-05-23T07:58:56.136Z,29.96
2019-05-23T08:01:32.589Z,29.80
2019-05-23T08:04:20.640Z,26.48
2019-05-23T08:06:42.967Z,26.64
2019-05-23T08:09:18.505Z,28.02
2019-05-23T08:11:52.301Z,28.12
2019-05-23T08:14:26.631Z,26.76
2019-05-23T08:17:03.350Z,26.03
2019-05-23T08:19:48.911Z,26.22
2019-05-23T08:22:14.618Z,26.07
2019-05-23T08:24:51.229Z,26.99
2019-05-23T08:27:26.123Z,26.93
2019-05-23T08:30:02.478Z,25.81
2019-05-23T08:32:36.550Z,28.90
2019-05-23T08:35:15.997Z,29.01
2019-05-23T08:37:47.386Z,27.88
2019-05-23T08:40:22.897Z,27.80
2019-05-23T08:42:56.999Z,27.20
2019-05-23T08:45:30.986Z,27.18
2019-05-23T08:48:05.053Z,26.88
2019-05-23T08:50:39.045Z,27.76
2019-05-23T08:53:14.947Z,27.18
2019-05-23T08:55:50.020Z,27.98
2019-05-23T08:58:24.701Z,29.04
2019-05-23T09:01:00.814Z,26.94
2019-05-23T09:03:35.518Z,28.77
2019-05-23T09:06:11.530Z,28.54
2019-05-23T09:08:47.004Z,28.32
2019-05-23T09:11:21.273Z,28.07
2019-05-23T09:13:55.649Z,28.67
2019-05-23T09:16:33.223Z,30.05
2019-05-23T09:19:07.569Z,29.30
2019-05-23T09:21:41.878Z,27.36
2019-05-23T09:24:20.524Z,26.53
2019-05-23T09:26:54.718Z,28.34
2019-05-23T09:29:28.821Z,29.11
2019-05-23T09:32:02.872Z,29.29
2019-05-23T09:34:38.806Z,30.46
2019-05-23T09:37:13.745Z,29.50
2019-05-23T09:39:48.476Z,28.33
2019-05-23T09:42:22.274Z,26.47
2019-05-23T09:44:56.065Z,25.91
2019-05-23T09:47:30.993Z,27.38
2019-05-23T09:50:06.495Z,28.09
2019-05-23T09:52:40.277Z,26.81
2019-05-23T09:55:16.441Z,28.52
2019-05-23T09:57:51.778Z,27.75
2019-05-23T10:00:27.691Z,27.86
2019-05-23T10:03:03.397Z,25.00
2019-05-23T10:05:44.438Z,26.98
2019-05-23T10:08:13.095Z,26.80
2019-05-23T10:10:47.035Z,27.47
2019-05-23T10:13:37.787Z,27.31
2019-05-23T10:16:15.353Z,27.80
2019-05-23T10:18:51.131Z,28.76
2019-05-23T10:21:24.912Z,28.35
2019-05-23T10:24:00.931Z,29.45
2019-05-23T10:26:37.530Z,32.20
2019-05-23T10:29:11.457Z,29.27
2019-05-23T10:31:45.357Z,27.61
2019-05-23T10:34:19.160Z,29.51
2019-05-23T10:36:54.630Z,27.56
2019-05-23T10:39:28.936Z,27.19
2019-05-23T10:42:02.762Z,26.28
2019-05-23T10:44:38.321Z,26.25
2019-05-23T10:47:12.671Z,27.86
2019-05-23T10:49:48.067Z,25.69
2019-05-23T10:52:23.286Z,26.78
2019-05-23T10:54:58.472Z,25.57
2019-05-23T10:57:32.422Z,25.22
2019-05-23T11:00:07.672Z,25.60
2019-05-23T11:02:43.414Z,25.33
2019-05-23T11:05:17.896Z,25.70
2019-05-23T11:07:51.802Z,25.58
2019-05-23T11:10:27.400Z,26.98
2019-05-23T11:13:02.525Z,27.73
2019-05-23T11:15:36.600Z,26.19
2019-05-23T11:18:13.901Z,26.73
2019-05-23T11:20:48.105Z,26.80
2019-05-23T11:23:26.515Z,26.42
2019-05-23T11:26:02.780Z,25.12
2019-05-23T11:28:37.475Z,26.27
2019-05-23T11:31:13.029Z,27.71
2019-05-23T11:33:48.490Z,26.83
2019-05-23T11:36:34.604Z,26.36
2019-05-23T11:38:58.925Z,25.78
2019-05-23T11:41:35.754Z,25.05
2019-05-23T11:44:09.501Z,26.78
2019-05-23T11:46:43.315Z,25.47
2019-05-23T11:49:18.583Z,25.34
2019-05-23T11:51:54.751Z,27.05
2019-05-23T11:54:30.784Z,26.19
2019-05-23T11:57:06.279Z,24.11
2019-05-23T11:59:41.053Z,23.96
2019-05-23T12:02:38.641Z,26.60
2019-05-23T12:05:20.736Z,27.14
2019-05-23T12:07:54.778Z,28.60
2019-05-23T12:10:29.823Z,26.98
2019-05-23T12:13:03.645Z,25.65
2019-05-23T12:15:40.086Z,25.01
2019-05-23T12:18:15.275Z,25.95
2019-05-23T12:20:50.051Z,24.85
2019-05-23T12:23:23.936Z,25.16
2019-05-23T12:25:59.121Z,24.45
2019-05-23T12:28:33.447Z,24.59
2019-05-23T12:31:08.233Z,25.82
2019-05-23T12:33:42.039Z,24.55
2019-05-23T12:36:16.524Z,25.89
2019-05-23T12:38:53.704Z,25.36
2019-05-23T12:41:27.565Z,24.75
2019-05-23T12:44:03.018Z,25.98
2019-05-23T12:46:36.976Z,25.42
2019-05-23T12:49:28.161Z,27.00
2019-05-23T12:52:02.860Z,27.15
2019-05-23T12:54:37.371Z,26.65
2019-05-23T12:57:11.860Z,25.57
2019-05-23T12:59:47.341Z,24.67
2019-05-23T13:02:25.747Z,25.46
2019-05-23T13:05:00.184Z,26.03
2019-05-23T13:07:36.671Z,24.10
2019-05-23T13:10:11.193Z,25.59
2019-05-23T13:12:44.988Z,26.70
2019-05-23T13:15:21.600Z,26.13
2019-05-23T13:17:55.555Z,26.70
2019-05-23T13:20:31.318Z,26.74
2019-05-23T13:23:06.954Z,26.35
2019-05-23T13:25:41.347Z,27.38
2019-05-23T13:28:16.250Z,26.70
2019-05-23T13:30:52.281Z,28.20
2019-05-23T13:33:27.961Z,26.50
2019-05-23T13:36:02.380Z,25.90
2019-05-23T13:38:36.264Z,27.14
2019-05-23T13:41:10.283Z,26.35
2019-05-23T13:43:44.740Z,27.33
2019-05-23T13:46:21.811Z,27.69
2019-05-23T13:48:56.675Z,28.33
2019-05-23T13:51:31.362Z,28.87
2019-05-23T13:54:05.963Z,28.81
2019-05-23T13:56:39.766Z,29.28
2019-05-23T13:59:14.007Z,28.32
2019-05-23T14:01:47.805Z,28.75
2019-05-23T14:04:21.630Z,29.26
2019-05-23T14:06:55.375Z,27.93
2019-05-23T14:09:30.275Z,27.05
2019-05-23T14:12:20.683Z,27.44
2019-05-23T14:14:41.953Z,27.68
2019-05-23T14:17:35.422Z,27.37
2019-05-23T14:20:10.108Z,27.01
2019-05-23T14:22:53.565Z,26.90
2019-05-23T14:25:28.506Z,27.59
2019-05-23T14:28:07.278Z,27.33
2019-05-23T14:30:48.396Z,26.75
2019-05-23T14:33:47.106Z,26.93
2019-05-23T14:36:39.897Z,26.50
2019-05-23T14:39:32.259Z,27.27
2019-05-23T14:42:16.902Z,27.31
2019-05-23T14:44:52.981Z,27.25
2019-05-23T14:47:51.527Z,27.03
2019-05-23T14:50:35.930Z,28.71
2019-05-23T14:53:11.614Z,30.05
2019-05-23T14:55:45.938Z,29.59
2019-05-23T14:58:20.200Z,29.69
2019-05-23T15:00:54.272Z,30.13
2019-05-23T15:03:28.563Z,29.78
2019-05-23T15:06:02.398Z,30.63
2019-05-23T15:08:51.169Z,30.72
2019-05-23T15:11:19.083Z,29.62
2019-05-23T15:13:52.962Z,29.37
2019-05-23T15:16:27.684Z,30.21
2019-05-23T15:19:01.387Z,29.42
2019-05-23T15:21:35.310Z,30.53
2019-05-23T15:24:09.281Z,28.85
2019-05-23T15:26:44.847Z,30.10
2019-05-23T15:29:20.925Z,29.81
2019-05-23T15:32:02.485Z,29.91
2019-05-23T15:34:35.261Z,30.97
2019-05-23T15:37:09.523Z,30.19
2019-05-23T15:39:43.647Z,31.61
2019-05-23T15:42:39.934Z,31.87
2019-05-23T15:45:16.194Z,31.01
2019-05-23T15:47:52.401Z,32.42
2019-05-23T15:50:30.283Z,31.40
2019-05-23T15:53:23.424Z,32.49
2019-05-23T15:56:28.230Z,31.48
2019-05-23T15:59:20.151Z,31.98
2019-05-23T16:02:08.157Z,32.07
2019-05-23T16:04:44.317Z,31.99
2019-05-23T16:07:19.757Z,33.42
2019-05-23T16:09:55.501Z,34.38
2019-05-23T16:12:30.173Z,34.23
2019-05-23T16:15:05.586Z,34.05
2019-05-23T16:17:39.780Z,34.08
2019-05-23T16:20:13.875Z,34.61
2019-05-23T16:22:50.206Z,34.81
2019-05-23T16:25:25.743Z,34.79
2019-05-23T16:27:59.535Z,35.06
2019-05-23T16:30:34.613Z,35.31
2019-05-23T16:33:09.546Z,35.27
2019-05-23T16:35:43.691Z,35.27
2019-05-23T16:38:17.562Z,36.21
2019-05-23T16:40:51.227Z,36.55
2019-05-23T16:43:25.195Z,37.23
2019-05-23T16:45:59.211Z,36.84
2019-05-23T16:48:34.013Z,37.09
2019-05-23T16:51:09.556Z,36.59
2019-05-23T16:53:44.328Z,36.87
2019-05-23T16:56:29.595Z,36.92
2019-05-23T16:59:12.485Z,37.24
2019-05-23T17:02:11.266Z,37.52
2019-05-23T17:05:20.167Z,38.79
2019-05-23T17:08:30.344Z,39.21
2019-05-23T17:11:14.860Z,39.10
2019-05-23T17:13:52.535Z,38.36
2019-05-23T17:16:35.318Z,38.23
2019-05-23T17:19:15.658Z,37.25
2019-05-23T17:22:11.842Z,37.88
2019-05-23T17:24:55.654Z,37.88
2019-05-23T17:27:45.051Z,38.78
2019-05-23T17:30:41.878Z,38.71
2019-05-23T17:33:27.317Z,40.58
2019-05-23T17:36:02.305Z,41.58
2019-05-23T17:38:37.526Z,41.98
2019-05-23T17:41:12.802Z,40.67
2019-05-23T17:43:47.045Z,41.75
2019-05-23T17:46:22.788Z,42.63
2019-05-23T17:48:58.494Z,43.34
2019-05-23T17:51:32.842Z,44.04
2019-05-23T17:54:07.574Z,44.07
2019-05-23T17:56:43.137Z,43.19
2019-05-23T17:59:18.486Z,44.04
2019-05-23T18:01:55.681Z,44.26
2019-05-23T18:04:33.321Z,45.19
2019-05-23T18:07:08.638Z,44.61
2019-05-23T18:09:42.935Z,43.75
2019-05-23T18:12:16.887Z,45.27
2019-05-23T18:14:51.348Z,44.79
2019-05-23T18:17:25.793Z,44.93
2019-05-23T18:20:00.115Z,45.09
2019-05-23T18:22:35.723Z,45.39
2019-05-23T18:25:12.398Z,45.75
2019-05-23T18:27:53.198Z,46.48
2019-05-23T18:30:47.812Z,46.30
2019-05-23T18:33:23.757Z,46.69
2019-05-23T18:35:58.199Z,46.80
2019-05-23T18:38:32.670Z,47.40
2019-05-23T18:41:09.549Z,47.09
2019-05-23T18:43:43.546Z,47.79
2019-05-23T18:46:22.888Z,47.81
2019-05-23T18:49:01.894Z,48.24
2019-05-23T18:51:36.412Z,49.23
2019-05-23T18:54:11.611Z,49.48
2019-05-23T18:56:45.352Z,49.82
2019-05-23T18:59:37.205Z,50.25
2019-05-23T19:02:11.862Z,50.89
2019-05-23T19:04:47.793Z,51.50
2019-05-23T19:07:22.176Z,51.73
2019-05-23T19:09:59.683Z,51.82
2019-05-23T19:12:34.729Z,52.71
2019-05-23T19:15:12.314Z,53.40
2019-05-23T19:17:46.187Z,53.67
2019-05-23T19:20:20.283Z,53.75
2019-05-23T19:22:56.280Z,54.09
2019-05-23T19:25:30.372Z,54.30
2019-05-23T19:28:05.023Z,54.72
2019-05-23T19:30:40.777Z,55.17
2019-05-23T19:33:15.026Z,55.15
2019-05-23T19:35:51.591Z,56.56
2019-05-23T19:38:27.247Z,56.23
2019-05-23T19:41:01.814Z,56.28
2019-05-23T19:43:36.646Z,56.55
2019-05-23T19:46:13.886Z,57.30
2019-05-23T19:48:51.196Z,57.67
2019-05-23T19:51:27.542Z,58.45
2019-05-23T19:54:05.461Z,59.64
2019-05-23T19:56:40.253Z,60.35
2019-05-23T19:59:25.112Z,60.10
2019-05-23T20:02:17.338Z,60.64
2019-05-23T20:05:11.812Z,59.72
2019-05-23T20:07:46.970Z,60.71
2019-05-23T20:10:24.204Z,61.20
2019-05-23T20:12:59.810Z,60.97
2019-05-23T20:15:36.145Z,60.51
2019-05-23T20:18:12.457Z,60.47
2019-05-23T20:20:50.196Z,61.03
2019-05-23T20:23:27.331Z,61.26
2019-05-23T20:26:01.403Z,61.12
2019-05-23T20:28:39.608Z,61.42
2019-05-23T20:31:13.636Z,61.94
2019-05-23T20:33:47.454Z,62.65
2019-05-23T20:36:21.969Z,62.98
2019-05-23T20:38:56.083Z,63.68
2019-05-23T20:41:30.348Z,63.13
2019-05-23T20:44:04.585Z,63.80
2019-05-23T20:46:38.986Z,64.14
2019-05-23T20:49:12.867Z,64.62
2019-05-23T20:51:46.878Z,64.98
2019-05-23T20:54:22.498Z,65.24
2019-05-23T20:56:57.956Z,64.96
2019-05-23T20:59:32.381Z,65.43
2019-05-23T21:02:06.726Z,65.80
2019-05-23T21:04:42.186Z,65.78
2019-05-23T21:07:16.262Z,65.04
2019-05-23T21:09:51.501Z,65.03
2019-05-23T21:12:29.890Z,65.11
2019-05-23T21:15:02.887Z,64.99
2019-05-23T21:17:36.705Z,65.07
2019-05-23T21:20:13.502Z,65.62
2019-05-23T21:22:47.273Z,65.08
2019-05-23T21:25:21.260Z,65.45
2019-05-23T21:27:55.239Z,65.71
2019-05-23T21:30:30.486Z,65.68
2019-05-23T21:33:04.617Z,66.18
2019-05-23T21:35:41.380Z,65.78
2019-05-23T21:38:15.143Z,64.81
2019-05-23T21:40:49.190Z,66.86
2019-05-23T21:43:24.322Z,66.88
2019-05-23T21:45:59.149Z,66.93
2019-05-23T21:48:33.189Z,66.86
2019-05-23T21:51:07.409Z,67.89
2019-05-23T21:53:41.414Z,68.01
2019-05-23T21:56:17.245Z,68.25
2019-05-23T21:58:51.199Z,68.95
2019-05-23T22:02:01.513Z,68.88
2019-05-23T22:04:58.230Z,68.42
2019-05-23T22:07:34.116Z,69.43
2019-05-23T22:10:08.114Z,69.76
2019-05-23T22:12:42.653Z,68.84
2019-05-23T22:15:34.947Z,69.62
2019-05-23T22:18:09.008Z,69.25
2019-05-23T22:20:42.899Z,69.13
2019-05-23T22:23:17.191Z,69.11
2019-05-23T22:25:51.299Z,69.21
2019-05-23T22:28:25.105Z,68.93
2019-05-23T22:31:00.278Z,69.46
2019-05-23T22:33:36.835Z,70.14
2019-05-23T22:36:11.044Z,70.35
2019-05-23T22:38:45.906Z,69.75
2019-05-23T22:41:20.083Z,69.12
2019-05-23T22:43:54.082Z,69.75
2019-05-23T22:46:29.711Z,69.45
2019-05-23T22:49:03.514Z,69.30
2019-05-23T22:51:37.250Z,69.84
2019-05-23T22:54:12.716Z,69.55
2019-05-23T22:56:47.587Z,70.00
2019-05-23T22:59:21.331Z,69.44
2019-05-23T23:01:56.391Z,69.46
2019-05-23T23:04:30.529Z,68.55
2019-05-23T23:07:04.463Z,68.74
2019-05-23T23:09:39.020Z,68.96
2019-05-23T23:12:15.099Z,69.76
2019-05-23T23:14:48.954Z,70.24
2019-05-23T23:17:23.591Z,70.55
2019-05-23T23:19:59.013Z,70.77
2019-05-23T23:22:32.808Z,70.75
2019-05-23T23:25:07.827Z,71.16
2019-05-23T23:27:43.357Z,71.62
2019-05-23T23:30:20.608Z,71.66
2019-05-23T23:32:55.415Z,72.04
2019-05-23T23:35:30.433Z,71.93
2019-05-23T23:38:04.211Z,72.54
2019-05-23T23:40:37.985Z,73.17
2019-05-23T23:43:32.420Z,73.29
2019-05-23T23:46:23.516Z,73.56
2019-05-23T23:49:14.644Z,73.79
2019-05-23T23:52:06.441Z,73.99
2019-05-23T23:54:57.643Z,73.92
2019-05-23T23:57:49.781Z,74.32
